createdAt,value
2022-11-24T00:01:31.526Z,2.00
2022-11-24T00:04:01.851Z,2.00
2022-11-24T00:06:32.787Z,2.00
2022-11-24T00:09:02.208Z,2.00
2022-11-24T00:11:34.736Z,2.00
2022-11-24T00:14:04.369Z,2.00
2022-11-24T00:16:34.868Z,2.00
2022-11-24T00:19:06.453Z,1.90
2022-11-24T00:21:35.215Z,1.90
2022-11-24T00:24:03.825Z,1.90
2022-11-24T00:26:35.906Z,1.90
2022-11-24T00:29:07.838Z,1.90
2022-11-24T00:31:38.294Z,1.90
2022-11-24T00:34:09.246Z,1.90
2022-11-24T00:36:38.819Z,1.90
2022-11-24T00:39:09.112Z,1.90
2022-11-24T00:41:39.804Z,2.00
2022-11-24T00:44:09.187Z,2.00
2022-11-24T00:46:37.994Z,2.00
2022-11-24T00:49:07.400Z,1.90
2022-11-24T00:51:36.401Z,2.10
2022-11-24T00:54:06.373Z,2.10
2022-11-24T00:56:35.419Z,2.00
2022-11-24T00:59:06.030Z,2.00
2022-11-24T01:01:34.991Z,2.00
2022-11-24T01:04:03.890Z,1.90
2022-11-24T01:06:35.787Z,1.90
2022-11-24T01:09:05.289Z,2.00
2022-11-24T01:11:50.580Z,2.00
2022-11-24T01:14:22.296Z,2.00
2022-11-24T01:16:51.239Z,2.00
2022-11-24T01:19:20.625Z,2.00
2022-11-24T01:21:49.463Z,1.90
2022-11-24T01:24:18.397Z,1.80
2022-11-24T01:26:46.991Z,1.90
2022-11-24T01:29:15.874Z,1.90
2022-11-24T01:31:46.973Z,1.80
2022-11-24T01:34:15.603Z,1.80
2022-11-24T01:36:44.517Z,1.80
2022-11-24T01:39:13.857Z,1.80
2022-11-24T01:41:42.685Z,1.80
2022-11-24T01:44:26.069Z,1.80
2022-11-24T01:47:00.364Z,1.80
2022-11-24T01:49:38.936Z,1.90
2022-11-24T01:52:13.723Z,1.80
2022-11-24T01:54:45.769Z,1.80
2022-11-24T01:57:19.936Z,1.80
2022-11-24T01:59:51.885Z,1.80
2022-11-24T02:02:29.727Z,1.80
2022-11-24T02:05:03.951Z,1.80
2022-11-24T02:07:32.965Z,1.90
2022-11-24T02:10:05.460Z,1.90
2022-11-24T02:12:35.548Z,1.90
2022-11-24T02:15:04.989Z,1.90
2022-11-24T02:17:35.539Z,1.80
2022-11-24T02:20:07.108Z,2.10
2022-11-24T02:22:44.882Z,1.90
2022-11-24T02:25:27.153Z,1.90
2022-11-24T02:27:58.043Z,2.00
2022-11-24T02:30:26.946Z,1.90
2022-11-24T02:32:55.923Z,1.90
2022-11-24T02:35:24.892Z,1.90
2022-11-24T02:37:53.530Z,2.00
2022-11-24T02:40:25.723Z,1.90
2022-11-24T02:42:59.470Z,2.00
2022-11-24T02:45:29.119Z,2.00
2022-11-24T02:47:58.029Z,2.00
2022-11-24T02:50:27.059Z,2.00
2022-11-24T02:52:56.026Z,2.10
2022-11-24T02:55:24.862Z,2.10
2022-11-24T02:57:53.714Z,2.00
2022-11-24T03:00:24.297Z,1.90
2022-11-24T03:02:53.428Z,1.90
2022-11-24T03:05:22.727Z,1.80
2022-11-24T03:07:51.712Z,1.80
2022-11-24T03:10:20.377Z,1.80
2022-11-24T03:12:49.286Z,1.80
2022-11-24T03:15:18.260Z,1.90
2022-11-24T03:17:48.468Z,2.10
2022-11-24T03:20:18.900Z,2.20
2022-11-24T03:22:47.921Z,2.10
2022-11-24T03:25:16.997Z,2.00
2022-11-24T03:27:45.875Z,2.10
2022-11-24T03:30:15.660Z,2.20
2022-11-24T03:32:44.629Z,2.10
2022-11-24T03:35:14.947Z,2.20
2022-11-24T03:37:43.882Z,2.20
2022-11-24T03:40:13.349Z,2.20
2022-11-24T03:42:42.039Z,2.20
2022-11-24T03:45:38.045Z,2.00
2022-11-24T03:48:00.380Z,2.00
2022-11-24T03:50:30.431Z,2.00
2022-11-24T03:52:59.365Z,2.00
2022-11-24T03:55:28.386Z,1.90
2022-11-24T03:57:57.311Z,1.80
2022-11-24T04:00:26.217Z,1.90
2022-11-24T04:02:55.451Z,1.80
2022-11-24T04:05:25.311Z,1.90
2022-11-24T04:07:58.628Z,1.90
2022-11-24T04:10:27.716Z,1.80
2022-11-24T04:12:55.349Z,1.90
2022-11-24T04:15:24.249Z,1.90
2022-11-24T04:17:55.569Z,1.80
2022-11-24T04:20:24.998Z,1.90
2022-11-24T04:22:53.588Z,1.80
2022-11-24T04:25:23.918Z,1.70
2022-11-24T04:27:55.034Z,1.80
2022-11-24T04:30:25.097Z,1.80
2022-11-24T04:32:54.263Z,2.90
2022-11-24T04:35:23.295Z,1.80
2022-11-24T04:37:52.411Z,1.90
2022-11-24T04:40:23.004Z,1.90
2022-11-24T04:42:55.564Z,1.80
2022-11-24T04:45:24.245Z,1.80
2022-11-24T04:47:52.928Z,2.00
2022-11-24T04:50:23.463Z,1.90
2022-11-24T04:52:52.623Z,1.90
2022-11-24T04:55:21.454Z,1.90
2022-11-24T04:57:51.616Z,1.90
2022-11-24T05:00:21.662Z,1.90
2022-11-24T05:02:50.388Z,1.80
2022-11-24T05:05:21.391Z,1.90
2022-11-24T05:07:50.441Z,2.00
2022-11-24T05:10:37.835Z,1.90
2022-11-24T05:13:14.335Z,1.90
2022-11-24T05:15:43.700Z,1.90
2022-11-24T05:18:15.487Z,2.10
2022-11-24T05:20:46.063Z,2.30
2022-11-24T05:23:15.187Z,2.50
2022-11-24T05:25:47.602Z,2.30
2022-11-24T05:28:19.082Z,2.20
2022-11-24T05:30:48.831Z,2.20
2022-11-24T05:33:20.009Z,2.20
2022-11-24T05:35:49.836Z,2.20
2022-11-24T05:38:19.506Z,2.10
2022-11-24T05:40:48.514Z,2.00
2022-11-24T05:43:19.652Z,2.00
2022-11-24T05:45:48.598Z,2.00
2022-11-24T05:48:17.700Z,2.00
2022-11-24T05:50:46.774Z,2.10
2022-11-24T05:53:15.833Z,2.00
2022-11-24T05:55:45.044Z,2.00
2022-11-24T05:58:13.681Z,2.00
2022-11-24T06:00:43.652Z,2.00
2022-11-24T06:03:13.073Z,2.00
2022-11-24T06:05:41.871Z,2.00
2022-11-24T06:08:10.551Z,2.00
2022-11-24T06:10:39.262Z,2.10
2022-11-24T06:13:08.820Z,2.10
2022-11-24T06:15:37.850Z,2.00
2022-11-24T06:18:08.426Z,2.00
2022-11-24T06:20:37.698Z,1.90
2022-11-24T06:23:06.387Z,1.90
2022-11-24T06:25:35.157Z,1.90
2022-11-24T06:28:05.464Z,2.00
2022-11-24T06:30:34.205Z,2.00
2022-11-24T06:33:02.843Z,2.00
2022-11-24T06:35:33.126Z,1.90
2022-11-24T06:38:01.765Z,2.00
2022-11-24T06:40:30.337Z,2.00
2022-11-24T06:42:58.969Z,2.00
2022-11-24T06:45:28.067Z,2.00
2022-11-24T06:47:57.313Z,1.90
2022-11-24T06:50:30.594Z,2.00
2022-11-24T06:53:03.570Z,2.10
2022-11-24T06:55:32.388Z,2.10
2022-11-24T06:58:01.070Z,2.10
2022-11-24T07:00:32.163Z,2.10
2022-11-24T07:03:01.263Z,2.10
2022-11-24T07:05:29.918Z,2.00
2022-11-24T07:08:00.481Z,2.10
2022-11-24T07:10:30.364Z,2.00
2022-11-24T07:12:58.913Z,2.10
2022-11-24T07:15:29.321Z,2.20
2022-11-24T07:17:58.240Z,2.30
2022-11-24T07:20:26.970Z,2.20
2022-11-24T07:22:57.472Z,2.20
2022-11-24T07:25:26.635Z,2.30
2022-11-24T07:27:58.695Z,2.20
2022-11-24T07:30:29.233Z,2.20
2022-11-24T07:33:00.690Z,2.20
2022-11-24T07:35:30.020Z,2.10
2022-11-24T07:37:59.402Z,2.00
2022-11-24T07:40:28.307Z,2.00
2022-11-24T07:43:01.676Z,2.10
2022-11-24T07:45:32.229Z,2.10
2022-11-24T07:48:01.017Z,2.10
2022-11-24T07:50:29.759Z,2.10
2022-11-24T07:53:02.813Z,2.10
2022-11-24T07:55:31.686Z,2.10
2022-11-24T07:58:03.002Z,2.20
2022-11-24T08:00:31.607Z,2.20
2022-11-24T08:03:00.330Z,2.50
2022-11-24T08:05:28.907Z,2.60
2022-11-24T08:07:57.707Z,2.70
2022-11-24T08:10:26.429Z,2.70
2022-11-24T08:12:55.134Z,2.50
2022-11-24T08:15:27.586Z,2.50
2022-11-24T08:17:56.423Z,2.50
2022-11-24T08:20:25.156Z,2.60
2022-11-24T08:22:58.315Z,2.60
2022-11-24T08:25:31.954Z,2.60
2022-11-24T08:28:00.758Z,2.40
2022-11-24T08:30:31.282Z,2.60
2022-11-24T08:33:00.715Z,2.60
2022-11-24T08:35:29.928Z,2.50
2022-11-24T08:38:04.432Z,2.40
2022-11-24T08:40:33.604Z,2.40
2022-11-24T08:43:02.530Z,2.50
2022-11-24T08:45:35.472Z,2.50
2022-11-24T08:48:08.403Z,2.70
2022-11-24T08:50:38.263Z,2.70
2022-11-24T08:53:07.194Z,2.60
2022-11-24T08:55:35.684Z,2.50
2022-11-24T08:58:04.232Z,2.50
2022-11-24T09:00:34.379Z,2.60
2022-11-24T09:03:03.199Z,2.50
2022-11-24T09:08:20.769Z,2.50
2022-11-24T09:10:49.347Z,2.50
2022-11-24T09:13:17.974Z,2.60
2022-11-24T09:15:47.834Z,2.60
2022-11-24T09:18:16.533Z,2.70
2022-11-24T09:20:45.125Z,2.80
2022-11-24T09:23:14.739Z,2.70
2022-11-24T09:25:43.467Z,2.70
2022-11-24T09:28:12.271Z,2.70
2022-11-24T09:30:41.028Z,2.70
2022-11-24T09:33:11.126Z,2.70
2022-11-24T09:35:40.284Z,2.60
2022-11-24T09:38:09.957Z,2.70
2022-11-24T09:40:38.582Z,2.70
2022-11-24T09:43:17.850Z,2.70
2022-11-24T09:46:11.376Z,2.80
2022-11-24T09:48:45.195Z,2.90
2022-11-24T09:51:16.106Z,2.90
2022-11-24T09:53:50.673Z,2.80
2022-11-24T09:56:23.530Z,2.70
2022-11-24T09:58:55.384Z,2.80
2022-11-24T10:01:29.730Z,2.90
2022-11-24T10:04:05.595Z,2.80
2022-11-24T10:06:41.348Z,2.80
2022-11-24T10:09:37.173Z,3.00
2022-11-24T10:12:17.058Z,2.90
2022-11-24T10:15:08.241Z,2.90
2022-11-24T10:17:50.765Z,2.80
2022-11-24T10:20:28.736Z,2.90
2022-11-24T10:23:16.499Z,2.80
2022-11-24T10:25:52.743Z,2.90
2022-11-24T10:28:21.311Z,2.80
2022-11-24T10:30:51.150Z,2.80
2022-11-24T10:33:28.848Z,2.70
2022-11-24T10:36:08.049Z,2.70
2022-11-24T10:38:45.426Z,2.80
2022-11-24T10:41:17.669Z,2.70
2022-11-24T10:43:46.260Z,2.70
2022-11-24T10:46:20.950Z,2.60
2022-11-24T10:48:51.775Z,2.70
2022-11-24T10:51:45.053Z,2.60
2022-11-24T10:54:18.063Z,2.50
2022-11-24T10:56:48.608Z,2.40
2022-11-24T10:59:36.143Z,2.50
2022-11-24T11:02:33.529Z,2.40
2022-11-24T11:05:43.252Z,2.40
2022-11-24T11:08:21.071Z,2.30
2022-11-24T11:10:51.353Z,2.40
2022-11-24T11:13:28.784Z,2.50
2022-11-24T11:15:58.958Z,2.60
2022-11-24T11:18:33.547Z,2.60
2022-11-24T11:21:03.525Z,2.70
2022-11-24T11:23:36.402Z,2.70
2022-11-24T11:26:31.073Z,2.70
2022-11-24T11:34:50.453Z,2.90
2022-11-24T11:37:20.604Z,3.00
2022-11-24T11:39:51.982Z,2.90
2022-11-24T11:43:00.060Z,2.90
2022-11-24T11:45:19.427Z,2.80
2022-11-24T11:47:52.837Z,3.00
2022-11-24T11:50:26.536Z,2.90
2022-11-24T11:53:18.433Z,2.90
2022-11-24T11:55:56.601Z,3.00
2022-11-24T11:59:01.103Z,3.00
2022-11-24T12:01:43.379Z,3.00
2022-11-24T12:04:22.707Z,3.10
2022-11-24T12:07:13.443Z,3.00
2022-11-24T12:09:53.478Z,3.30
2022-11-24T12:12:46.722Z,3.60
2022-11-24T12:15:23.982Z,3.40
2022-11-24T12:17:56.623Z,3.30
2022-11-24T12:20:41.890Z,3.20
2022-11-24T12:23:21.230Z,3.20
2022-11-24T12:25:58.068Z,3.10
2022-11-24T12:28:39.854Z,3.10
2022-11-24T12:31:11.429Z,3.10
2022-11-24T12:34:06.445Z,2.90
2022-11-24T12:36:49.458Z,2.90
2022-11-24T12:39:26.498Z,2.90
2022-11-24T12:42:06.352Z,2.90
2022-11-24T12:45:13.279Z,2.90
2022-11-24T12:47:54.363Z,3.00
2022-11-24T12:50:27.657Z,3.00
2022-11-24T12:53:03.271Z,3.00
2022-11-24T12:55:34.677Z,2.90
2022-11-24T12:58:11.599Z,2.90
2022-11-24T13:00:54.150Z,3.10
2022-11-24T13:03:32.417Z,3.00
2022-11-24T13:06:08.711Z,3.10
2022-11-24T13:08:38.331Z,3.00
2022-11-24T13:11:42.058Z,3.00
2022-11-24T13:14:23.238Z,2.90
2022-11-24T13:19:47.689Z,3.00
2022-11-24T13:22:19.386Z,2.80
2022-11-24T13:25:12.800Z,2.90
2022-11-24T13:27:48.126Z,2.80
2022-11-24T13:30:58.969Z,2.80
2022-11-24T13:33:37.166Z,2.80
2022-11-24T13:36:34.059Z,2.80
2022-11-24T13:39:04.983Z,2.80
2022-11-24T13:42:10.469Z,2.80
2022-11-24T13:45:00.441Z,2.80
2022-11-24T13:47:35.301Z,2.80
2022-11-24T13:50:22.894Z,2.80
2022-11-24T13:53:00.232Z,2.90
2022-11-24T13:55:34.287Z,2.90
2022-11-24T13:58:24.931Z,2.90
2022-11-24T14:01:19.050Z,2.80
2022-11-24T14:04:29.394Z,2.80
2022-11-24T14:07:05.590Z,2.80
2022-11-24T14:09:41.888Z,2.80
2022-11-24T14:12:15.845Z,2.80
2022-11-24T14:14:46.132Z,2.70
2022-11-24T14:17:18.668Z,2.70
2022-11-24T14:19:48.741Z,2.60
2022-11-24T14:22:21.723Z,2.60
2022-11-24T14:24:55.527Z,2.60
2022-11-24T14:27:29.660Z,2.50
2022-11-24T14:29:59.807Z,2.50
2022-11-24T14:32:28.573Z,2.50
2022-11-24T14:34:57.583Z,2.60
2022-11-24T14:37:27.714Z,2.50
2022-11-24T14:39:56.290Z,2.50
2022-11-24T14:42:27.252Z,2.60
2022-11-24T14:45:01.697Z,2.60
2022-11-24T14:47:32.673Z,2.60
2022-11-24T14:50:11.464Z,2.60
2022-11-24T14:52:47.750Z,2.60
2022-11-24T14:55:28.172Z,2.60
2022-11-24T14:57:56.871Z,2.60
2022-11-24T15:00:31.264Z,2.70
2022-11-24T15:03:17.177Z,2.70
2022-11-24T15:05:56.059Z,2.80
2022-11-24T15:08:28.486Z,2.60
2022-11-24T15:10:59.976Z,2.60
2022-11-24T15:13:30.010Z,2.60
2022-11-24T15:16:03.152Z,2.60
2022-11-24T15:18:38.499Z,2.60
2022-11-24T15:21:07.578Z,2.70
2022-11-24T15:23:41.105Z,2.60
2022-11-24T15:26:31.459Z,2.60
2022-11-24T15:29:01.748Z,2.60
2022-11-24T15:31:30.296Z,2.60
2022-11-24T15:33:58.902Z,2.60
2022-11-24T15:36:27.465Z,2.70
2022-11-24T15:38:57.403Z,2.70
2022-11-24T15:41:30.695Z,2.70
2022-11-24T15:43:59.971Z,2.70
2022-11-24T15:46:30.100Z,2.70
2022-11-24T15:48:59.140Z,2.70
2022-11-24T15:51:28.369Z,2.70
2022-11-24T15:54:01.019Z,2.70
2022-11-24T15:56:32.890Z,2.70
2022-11-24T15:59:02.042Z,2.70
2022-11-24T16:01:33.604Z,2.80
2022-11-24T16:04:02.595Z,2.70
2022-11-24T16:06:31.494Z,2.70
2022-11-24T16:09:01.786Z,2.70
2022-11-24T16:11:30.450Z,2.70
2022-11-24T16:13:59.065Z,2.70
2022-11-24T16:16:27.834Z,2.70
2022-11-24T16:18:57.497Z,2.80
2022-11-24T16:21:26.033Z,2.80
2022-11-24T16:23:55.585Z,2.80
2022-11-24T16:26:25.640Z,2.80
2022-11-24T16:28:54.372Z,2.80
2022-11-24T16:31:23.064Z,2.80
2022-11-24T16:33:51.733Z,2.80
2022-11-24T16:36:20.352Z,2.80
2022-11-24T16:38:49.122Z,2.80
2022-11-24T16:41:17.953Z,2.80
2022-11-24T16:43:49.009Z,2.80
2022-11-24T16:46:19.869Z,2.80
2022-11-24T16:48:49.998Z,2.80
2022-11-24T16:51:20.688Z,2.80
2022-11-24T16:53:49.931Z,2.90
2022-11-24T16:56:18.627Z,2.80
2022-11-24T16:58:48.757Z,2.80
2022-11-24T17:01:17.481Z,3.00
2022-11-24T17:03:46.308Z,2.90
2022-11-24T17:06:17.016Z,2.90
2022-11-24T17:08:47.236Z,2.90
2022-11-24T17:11:17.664Z,2.90
2022-11-24T17:13:49.184Z,2.90
2022-11-24T17:16:21.217Z,2.90
2022-11-24T17:18:50.658Z,2.90
2022-11-24T17:21:21.397Z,2.80
2022-11-24T17:23:54.535Z,2.90
2022-11-24T17:26:23.141Z,2.80
2022-11-24T17:28:54.176Z,2.80
2022-11-24T17:31:24.635Z,2.70
2022-11-24T17:33:55.505Z,2.70
2022-11-24T17:36:24.205Z,2.60
2022-11-24T17:38:53.190Z,2.60
2022-11-24T17:41:22.773Z,2.60
2022-11-24T17:43:53.659Z,2.70
2022-11-24T17:46:22.608Z,2.60
2022-11-24T17:48:51.366Z,2.70
2022-11-24T17:51:22.568Z,2.70
2022-11-24T17:53:53.185Z,2.60
2022-11-24T17:56:24.023Z,2.60
2022-11-24T17:58:56.054Z,2.60
2022-11-24T18:01:26.187Z,2.60
2022-11-24T18:03:55.269Z,2.60
2022-11-24T18:06:25.569Z,2.70
2022-11-24T18:08:55.185Z,2.60
2022-11-24T18:11:30.882Z,2.60
2022-11-24T18:14:04.989Z,2.60
2022-11-24T18:16:35.927Z,2.60
2022-11-24T18:19:12.167Z,3.70
2022-11-24T18:21:47.730Z,2.90
2022-11-24T18:24:22.537Z,3.20
2022-11-24T18:26:52.880Z,2.50
2022-11-24T18:29:23.536Z,2.50
2022-11-24T18:31:52.976Z,2.50
2022-11-24T18:34:24.782Z,2.40
2022-11-24T18:36:53.518Z,3.40
2022-11-24T18:39:22.287Z,3.10
2022-11-24T18:41:54.234Z,2.60
2022-11-24T18:44:24.747Z,2.50
2022-11-24T18:46:53.749Z,2.60
2022-11-24T18:49:22.521Z,2.50
2022-11-24T18:51:51.301Z,2.50
2022-11-24T18:54:20.412Z,2.50
2022-11-24T18:56:49.326Z,2.50
2022-11-24T18:59:19.085Z,2.50
2022-11-24T19:01:49.501Z,2.40
2022-11-24T19:04:18.550Z,2.40
2022-11-24T19:06:47.310Z,2.50
2022-11-24T19:09:18.532Z,2.50
2022-11-24T19:11:48.017Z,2.50
2022-11-24T19:14:20.583Z,2.50
2022-11-24T19:16:51.209Z,2.50
2022-11-24T19:19:20.290Z,2.50
2022-11-24T19:21:49.139Z,2.60
2022-11-24T19:24:17.973Z,2.50
2022-11-24T19:26:46.815Z,2.60
2022-11-24T19:29:16.619Z,2.60
2022-11-24T19:31:45.297Z,2.60
2022-11-24T19:34:16.689Z,2.60
2022-11-24T19:36:45.810Z,2.60
2022-11-24T19:39:16.470Z,2.60
2022-11-24T19:41:45.208Z,2.60
2022-11-24T19:44:14.583Z,2.60
2022-11-24T19:46:46.071Z,2.60
2022-11-24T19:49:16.795Z,3.10
2022-11-24T19:51:47.038Z,2.60
2022-11-24T19:54:17.297Z,2.60
2022-11-24T19:56:46.057Z,2.60
2022-11-24T19:59:15.563Z,2.50
2022-11-24T20:01:52.327Z,2.50
2022-11-24T20:04:25.273Z,2.50
2022-11-24T20:06:57.394Z,2.50
2022-11-24T20:09:26.851Z,2.50
2022-11-24T20:11:55.855Z,2.50
2022-11-24T20:14:24.688Z,2.50
2022-11-24T20:16:53.791Z,2.70
2022-11-24T20:19:26.754Z,2.80
2022-11-24T20:22:01.889Z,2.90
2022-11-24T20:24:31.138Z,3.50
2022-11-24T20:27:00.800Z,2.80
2022-11-24T20:29:34.125Z,2.70
2022-11-24T20:32:02.931Z,2.70
2022-11-24T20:34:33.664Z,2.70
2022-11-24T20:37:03.771Z,2.60
2022-11-24T20:39:40.390Z,2.60
2022-11-24T20:42:09.144Z,2.60
2022-11-24T20:44:38.248Z,2.90
2022-11-24T20:47:07.342Z,3.10
2022-11-24T20:49:37.699Z,3.00
2022-11-24T20:52:06.791Z,3.00
2022-11-24T20:54:35.548Z,2.90
2022-11-24T20:57:04.491Z,2.80
2022-11-24T20:59:33.280Z,2.60
2022-11-24T21:02:01.988Z,2.60
2022-11-24T21:04:30.552Z,2.60
2022-11-24T21:07:00.433Z,2.60
2022-11-24T21:09:28.979Z,2.50
2022-11-24T21:11:57.689Z,2.50
2022-11-24T21:14:29.016Z,2.60
2022-11-24T21:16:59.695Z,2.60
2022-11-24T21:19:28.717Z,2.60
2022-11-24T21:21:57.279Z,2.60
2022-11-24T21:24:27.173Z,2.60
2022-11-24T21:26:55.801Z,2.50
2022-11-24T21:29:25.656Z,2.50
2022-11-24T21:31:54.271Z,2.60
2022-11-24T21:34:22.975Z,2.60
2022-11-24T21:36:51.587Z,2.50
2022-11-24T21:39:20.196Z,2.50
2022-11-24T21:41:50.129Z,2.50
2022-11-24T21:44:18.735Z,2.60
2022-11-24T21:46:52.730Z,2.60
2022-11-24T21:49:24.452Z,2.60
2022-11-24T21:51:55.809Z,2.60
2022-11-24T21:54:25.011Z,2.60
2022-11-24T21:56:56.270Z,2.70
2022-11-24T21:59:24.825Z,2.70
2022-11-24T22:01:53.426Z,2.70
2022-11-24T22:04:22.108Z,2.70
2022-11-24T22:06:50.620Z,2.70
2022-11-24T22:09:19.267Z,2.70
2022-11-24T22:11:49.261Z,2.70
2022-11-24T22:14:19.529Z,2.70
2022-11-24T22:16:48.368Z,2.70
2022-11-24T22:19:16.930Z,2.70
2022-11-24T22:21:45.611Z,2.60
2022-11-24T22:24:14.350Z,2.60
2022-11-24T22:26:43.080Z,2.80
2022-11-24T22:29:11.763Z,2.70
2022-11-24T22:31:41.837Z,2.70
2022-11-24T22:34:10.499Z,2.80
2022-11-24T22:36:39.044Z,2.70
2022-11-24T22:39:11.831Z,2.70
2022-11-24T22:41:40.469Z,2.00
2022-11-24T22:44:09.200Z,2.60
2022-11-24T22:46:37.843Z,2.70
2022-11-24T22:49:07.978Z,2.70
2022-11-24T22:51:39.948Z,2.70
2022-11-24T22:54:12.634Z,2.70
2022-11-24T22:56:41.262Z,2.70
2022-11-24T22:59:09.835Z,2.70
2022-11-24T23:01:38.349Z,2.70
2022-11-24T23:04:08.503Z,2.60
2022-11-24T23:06:37.134Z,2.60
2022-11-24T23:09:07.273Z,2.60
2022-11-24T23:11:38.492Z,2.50
2022-11-24T23:14:09.500Z,2.60
2022-11-24T23:16:38.181Z,2.60
2022-11-24T23:19:09.282Z,2.70
2022-11-24T23:21:39.620Z,2.50
2022-11-24T23:24:09.611Z,2.50
2022-11-24T23:26:40.408Z,2.60
2022-11-24T23:29:10.444Z,2.50
2022-11-24T23:31:40.629Z,2.60
2022-11-24T23:34:10.821Z,2.50
2022-11-24T23:36:39.526Z,2.50
2022-11-24T23:39:09.714Z,2.60
2022-11-24T23:41:38.462Z,2.50
2022-11-24T23:44:07.865Z,2.60
2022-11-24T23:46:36.709Z,3.50
2022-11-24T23:49:06.746Z,2.60
2022-11-24T23:51:41.664Z,2.60
2022-11-24T23:54:10.914Z,2.80
2022-11-24T23:56:39.795Z,2.70
2022-11-24T23:59:12.475Z,2.60
